Flight Track Log - Related Links

Times and Time Zones

All times are in EDT time to prevent confusion due to time zone crossing. See the N777FZ flight status page for this flight to view local times or setup timezone preferences in your user account.

Time Position Orientation Groundspeed Altitude Reporting Facility
EDT Latitude Longitude Course Direction KTS MPH feet Rate Location/Type
Fri 11:04:26 PM 31.4950 -109.4931 41° Northeast 226 260 11,400  Level Albuquerque Center
Fri 11:05:28 PM 31.5489 -109.4225 48° Northeast 284 327 13,800 2,098 Climbing Albuquerque Center
Fri 11:06:29 PM 31.5831 -109.3356 65° Northeast 309 356 15,700 1,918 Climbing Albuquerque Center
Fri 11:07:30 PM 31.6217 -109.2344 66° East 331 381 17,700 1,918 Climbing Albuquerque Center
Fri 11:08:31 PM 31.6653 -109.1300 64° Northeast 350 403 19,600 1,820 Climbing Albuquerque Center
Fri 11:09:32 PM 31.7114 -109.0186 64° Northeast 371 427 21,400 1,756 Climbing Albuquerque Center
Fri 11:10:34 PM 31.7572 -108.9036 65° Northeast 383 441 23,200 1,951 Climbing Albuquerque Center
Fri 11:11:35 PM 31.8133 -108.7633 65° Northeast 392 451 25,400 1,967 Climbing Albuquerque Center
Fri 11:12:36 PM 31.8619 -108.6456 64° Northeast 396 456 27,200 1,770 Climbing Albuquerque Center
Fri 11:13:37 PM 31.9094 -108.5253 65° Northeast 403 464 29,000 1,770 Climbing Albuquerque Center
Fri 11:14:38 PM 31.9117 -108.3817 89° East 419 482 30,800 1,707 Climbing Albuquerque Center
Fri 11:15:40 PM 31.9047 -108.2447 93° East 420 483 32,500 1,512 Climbing Albuquerque Center
Fri 11:16:41 PM 31.8997 -108.1067 92° East 420 483 33,900 1,230 Climbing Albuquerque Center
Fri 11:17:42 PM 31.8947 -107.9631 92° East 434 499 35,000 1,033 Climbing Albuquerque Center
Fri 11:18:43 PM 31.8875 -107.8161 93° East 447 514 36,000 976 Climbing Albuquerque Center
Fri 11:19:45 PM 31.8817 -107.6667 93° East 455 524 37,000 976 Climbing Albuquerque Center
Fri 11:20:46 PM 31.8750 -107.5172 93° East 458 527 38,000 934 Climbing Albuquerque Center
Fri 11:21:47 PM 31.8706 -107.3675 92° East 460 529 38,900 492 Climbing Albuquerque Center
Fri 11:22:48 PM 31.8619 -107.1808 93° East 478 550 39,000 49 Climbing Albuquerque Center
Fri 11:23:50 PM 31.8531 -107.0222 94° East 487 560 39,000  Level Albuquerque Center
Fri 11:24:51 PM 31.8458 -106.8617 93° East 491 565 39,000  Level Albuquerque Center
Fri 11:25:52 PM 31.8375 -106.7022 93° East 493 567 39,000  Level Albuquerque Center
Fri 11:26:54 PM 31.8292 -106.5428 93° East 492 566 39,000  Level Albuquerque Center
Fri 11:27:55 PM 31.8239 -106.3800 92° East 497 572 39,000  Level Albuquerque Center
Fri 11:28:56 PM 31.8142 -106.1931 93° East 496 571 39,000  Level Albuquerque Center
Fri 11:29:57 PM 31.8064 -106.0353 93° East 486 559 39,000  Level Albuquerque Center
Fri 11:30:59 PM 31.7956 -105.8764 95° East 487 560 39,000  Level Albuquerque Center
Fri 11:32:00 PM 31.7875 -105.7044 93° East 490 564 39,000  Level Albuquerque Center
Fri 11:33:01 PM 31.7794 -105.5439 93° East 489 563 39,000  Level Albuquerque Center
Fri 11:34:02 PM 31.7717 -105.3817 93° East 497 572 39,000  Level Albuquerque Center
Fri 11:35:04 PM 31.7600 -105.2228 95° East 493 567 39,000  Level Albuquerque Center
Fri 11:36:05 PM 31.7522 -105.0617 93° East 494 568 39,000  Level Albuquerque Center
Fri 11:37:06 PM 31.7586 -104.8986 87° East 494 568 39,000  Level Albuquerque Center
Fri 11:38:07 PM 31.7761 -104.7372 83° East 496 571 39,000  Level Albuquerque Center
Fri 11:39:08 PM 31.7894 -104.5742 84° East 497 572 39,000  Level Albuquerque Center
Fri 11:40:10 PM 31.7953 -104.4108 88° East 497 572 39,000  Level Albuquerque Center
Fri 11:41:11 PM 31.8067 -104.2444 85° East 504 580 39,000  Level Albuquerque Center
Fri 11:42:12 PM 31.8208 -104.0436 85° East 510 587 39,000  Level Albuquerque Center
Fri 11:43:43 PM 31.8383 -103.8103 85° East 510 587 39,000  Level Fort Worth Center
Fri 11:44:14 PM 31.8469 -103.7086 84° East 511 588 39,000  Level Albuquerque Center
Fri 11:45:15 PM 31.8558 -103.5411 86° East 516 594 39,000  Level Albuquerque Center
Fri 11:46:17 PM 31.8672 -103.3758 85° East 515 593 39,000  Level Albuquerque Center
Fri 11:47:18 PM 31.8800 -103.2144 85° East 506 582 39,000  Level Albuquerque Center
Fri 11:48:19 PM 31.9142 -103.0497 76° East 505 581 39,000  Level Albuquerque Center
Fri 11:48:49 PM 31.9317 -102.9503 78° East 505 581 39,000  Level Fort Worth Center
Fri 11:49:50 PM 31.9631 -102.7850 77° East 513 590 39,000  Level Fort Worth Center
Fri 11:50:51 PM 31.9942 -102.6211 77° East 514 592 39,000  Level Fort Worth Center
Fri 11:51:52 PM 32.0253 -102.4531 78° East 518 596 39,000 -49 Level Fort Worth Center
Fri 11:52:53 PM 32.0561 -102.2850 78° East 519 597 38,900 -1,033 Descending Fort Worth Center
Fri 11:53:54 PM 32.0878 -102.1161 77° East 525 604 36,900 -2,115 Descending Fort Worth Center
Fri 11:54:55 PM 32.1158 -101.9558 78° East 503 579 34,600 -2,262 Descending Fort Worth Center
Fri 11:55:56 PM 32.1469 -101.7939 77° East 499 574 32,300 -2,361 Descending Fort Worth Center
Fri 11:56:57 PM 32.1775 -101.6197 78° East 503 579 29,800 -2,361 Descending Fort Worth Center
Fri 11:57:58 PM 32.2064 -101.4603 78° East 503 579 27,500 -2,262 Descending Fort Worth Center
Fri 11:58:59 PM 32.2336 -101.3019 78° East 495 570 25,200 -2,195 Descending Fort Worth Center
Sat 12:00:01 AM 32.2606 -101.1542 78° East 487 560 23,000 -2,213 Descending Fort Worth Center
Sat 12:01:01 AM 32.2864 -101.0031 79° East 475 547 20,700 -2,231 Descending Fort Worth Center
Sat 12:02:02 AM 32.3125 -100.8553 78° East 467 537 18,500 -2,115 Descending Fort Worth Center
Sat 12:03:03 AM 32.3381 -100.7108 78° East 454 522 16,400 -2,308 Descending Fort Worth Center
Sat 12:03:20 AM 32.3547 -100.6511 72° East 423 487 15,500 -1,742 Descending Fort Worth Center
Sat 12:04:05 AM 32.3614 -100.5758 84° East 428 493 14,600 -1,585 Descending Fort Worth Center
Sat 12:05:06 AM 32.3883 -100.4144 79° East 421 484 12,700 -1,770 Descending Fort Worth Center
Sat 12:06:07 AM 32.4117 -100.2833 78° East 416 479 11,000 -1,426 Descending Fort Worth Center
Sat 12:07:08 AM 32.4289 -100.1781 79° East 361 415 9,800 -1,216 Descending Fort Worth Center
Sat 12:07:21 AM 32.4300 -100.1553 87° East 317 365 9,500 -1,672 Descending Fort Worth Center
Sat 12:08:09 AM 32.4456 -100.0792 76° East 328 377 8,100 -1,722 Descending Fort Worth Center
Sat 12:09:09 AM 32.4589 -99.9858 80° East 307 353 6,400 -1,686 Descending Fort Worth Center
Sat 12:10:10 AM 32.4606 -99.8969 89° East 287 330 4,700 -1,328 Descending Fort Worth Center
Sat 12:11:11 AM 32.4675 -99.8139 84° East 268 308 3,700 -930 Descending Fort Worth Center
Sat 12:11:21 AM 32.4736 -99.7969 67° East 240 276 3,600 -393 Descending Fort Worth Center
Sat 12:12:12 AM 32.4944 -99.7533 60° Northeast 229 264 3,300 -321 Descending Fort Worth Center
Sat 12:13:13 AM 32.4878 -99.7036 99° East 185 213 3,000 -443 Descending Fort Worth Center
Sat 12:14:14 AM 32.4583 -99.6853 152° Southeast 142 163 2,400 -541 Descending Fort Worth Center
Sat 12:15:15 AM 32.4283 -99.6850 180° South 119 137 1,900 -295 Descending Fort Worth Center
Sat 12:16:16 AM 32.4014 -99.6844 179° South 107 123 1,800 -98 Descending Fort Worth Center

Login

Don't have an account? Register now (free) for customized features, flight alerts, and more!